Time;durP1;ratioP1;P1;durP2;ratioP2;P2;SDS_P1;SDS_P2;PMS_P1;PMS_P2;Temp;Humidity;BMP_temperature;BMP_pressure;BME280_temperature;BME280_humidity;BME280_pressure;Samples;Min_cycle;Max_cycle;Signal;HPM_P1;HPM_P2
2023/09/11 00:00:49;;;;;;;46.05;43.85;;;;;;;13.07;100.00;101499.06;5011657;28;20050;-77
2023/09/11 00:03:15;;;;;;;36.90;35.10;;;;;;;13.22;100.00;101499.72;5009744;28;20047;-78
2023/09/11 00:05:43;;;;;;;41.17;39.08;;;;;;;13.12;100.00;101495.81;5009706;28;20053;-77
2023/09/11 00:08:10;;;;;;;49.97;47.67;;;;;;;13.22;100.00;101498.88;5007174;28;20042;-77
2023/09/11 00:10:37;;;;;;;31.30;29.77;;;;;;;13.20;100.00;101499.09;5003895;28;20046;-76
2023/09/11 00:13:06;;;;;;;42.00;40.00;;;;;;;13.07;100.00;101505.25;5001920;28;20431;-76
2023/09/11 00:15:40;;;;;;;36.30;34.50;;;;;;;13.00;100.00;101500.91;4999091;28;20058;-77
2023/09/11 00:18:07;;;;;;;34.53;32.83;;;;;;;12.91;100.00;101504.78;4996931;28;20141;-77
2023/09/11 00:20:34;;;;;;;35.10;33.35;;;;;;;12.98;100.00;101501.13;5006432;28;20054;-77
2023/09/11 00:23:01;;;;;;;37.75;35.95;;;;;;;12.98;100.00;101503.78;5010589;28;20046;-76
2023/09/11 00:25:28;;;;;;;39.85;37.95;;;;;;;12.96;100.00;101503.16;4998657;28;20109;-77
2023/09/11 00:27:55;;;;;;;38.50;36.63;;;;;;;12.44;100.00;101504.66;5006089;28;20057;-77
2023/09/11 00:30:23;;;;;;;32.22;30.52;;;;;;;12.69;100.00;101506.78;5007877;28;20054;-77
2023/09/11 00:32:50;;;;;;;38.10;36.20;;;;;;;12.45;100.00;101508.97;5007689;28;20058;-76
2023/09/11 00:35:17;;;;;;;31.30;29.60;;;;;;;12.22;100.00;101516.44;5004256;28;20520;-76
2023/09/11 00:37:44;;;;;;;46.53;44.33;;;;;;;12.63;100.00;101516.41;5008476;28;20061;-76
2023/09/11 00:40:11;;;;;;;38.70;36.80;;;;;;;12.45;100.00;101511.63;5004620;28;20046;-76
2023/09/11 00:42:40;;;;;;;38.70;36.80;;;;;;;12.31;100.00;101510.72;5009446;28;20045;-76
2023/09/11 00:45:07;;;;;;;38.58;36.67;;;;;;;12.26;100.00;101513.19;5001579;28;20433;-76
2023/09/11 00:47:45;;;;;;;31.92;30.23;;;;;;;11.23;100.00;101499.56;5004996;28;20054;-76
2023/09/11 00:50:14;;;;;;;37.35;35.50;;;;;;;11.20;100.00;101499.94;5004631;28;20057;-76
2023/09/11 00:52:42;;;;;;;40.22;38.33;;;;;;;11.80;100.00;101505.72;5005393;28;20049;-77
2023/09/11 00:55:10;;;;;;;43.50;41.40;;;;;;;11.85;100.00;101508.63;5002617;28;20057;-77
2023/09/11 00:57:52;;;;;;;39.25;37.35;;;;;;;11.76;100.00;101506.28;5003298;28;20056;-77
2023/09/11 01:00:20;;;;;;;43.30;41.22;;;;;;;11.92;100.00;101503.34;5004362;28;20042;-77
2023/09/11 01:02:49;;;;;;;39.45;37.55;;;;;;;12.11;100.00;101502.66;5004460;28;20520;-77
2023/09/11 01:05:17;;;;;;;39.53;37.53;;;;;;;11.91;100.00;101507.84;5005282;28;20064;-77
2023/09/11 01:07:44;;;;;;;39.05;37.05;;;;;;;11.90;100.00;101510.72;5003610;28;20046;-77
2023/09/11 01:10:11;;;;;;;38.00;36.08;;;;;;;11.52;100.00;101507.56;5000669;28;20056;-77
2023/09/11 01:12:39;;;;;;;30.60;29.00;;;;;;;11.58;100.00;101504.13;4999371;28;20046;-76
2023/09/11 01:15:09;;;;;;;33.45;31.60;;;;;;;11.77;100.00;101505.28;4994446;28;20496;-76
2023/09/11 01:17:57;;;;;;;34.40;32.70;;;;;;;11.69;100.00;101515.06;5003006;28;20486;-77
2023/09/11 01:21:01;;;;;;;34.83;33.13;;;;;;;10.78;100.00;101506.06;5010102;28;20049;-76
2023/09/11 01:23:51;;;;;;;31.13;29.52;;;;;;;11.12;100.00;101501.91;5010832;28;20050;-77
2023/09/11 01:26:57;;;;;;;29.75;28.25;;;;;;;11.07;100.00;101504.28;4995707;28;20041;-75
2023/09/11 01:29:40;;;;;;;30.30;28.60;;;;;;;11.55;100.00;101505.31;4989640;28;20054;-76
2023/09/11 01:32:10;;;;;;;39.60;37.70;;;;;;;11.50;100.00;101504.25;5004116;28;20428;-77
2023/09/11 01:34:37;;;;;;;34.05;32.28;;;;;;;11.15;100.00;101497.00;4998049;28;20048;-77
2023/09/11 01:37:04;;;;;;;39.15;37.22;;;;;;;11.07;100.00;101502.44;5007015;28;20554;-77
2023/09/11 01:39:31;;;;;;;33.63;31.92;;;;;;;11.22;100.00;101497.06;5007017;28;20498;-77
2023/09/11 01:42:07;;;;;;;31.95;30.35;;;;;;;10.78;100.00;101500.75;5011336;28;20538;-77
2023/09/11 01:44:50;;;;;;;34.63;32.90;;;;;;;11.05;100.00;101496.53;5011319;28;20817;-77
2023/09/11 01:47:21;;;;;;;33.88;32.10;;;;;;;11.12;100.00;101501.91;4995114;28;20050;-77
2023/09/11 01:49:49;;;;;;;37.25;35.55;;;;;;;11.21;100.00;101490.94;5006481;28;20492;-77
2023/09/11 01:52:17;;;;;;;36.15;34.45;;;;;;;11.27;100.00;101496.50;5001828;28;20423;-77
2023/09/11 01:54:44;;;;;;;35.30;33.60;;;;;;;10.99;100.00;101495.44;4993674;28;20042;-77
2023/09/11 01:57:11;;;;;;;48.78;46.58;;;;;;;10.83;100.00;101495.66;5004560;28;20046;-77
2023/09/11 01:59:38;;;;;;;46.08;43.97;;;;;;;10.59;100.00;101494.19;4994913;28;20072;-77
2023/09/11 02:02:07;;;;;;;52.58;50.38;;;;;;;10.69;100.00;101507.19;5009732;28;20046;-76
2023/09/11 02:04:34;;;;;;;57.28;54.80;;;;;;;10.41;100.00;101505.22;5007377;28;20053;-77
2023/09/11 02:07:00;;;;;;;55.88;53.38;;;;;;;10.82;100.00;101499.34;5006551;28;20052;-77
2023/09/11 02:09:27;;;;;;;46.65;44.50;;;;;;;10.78;100.00;101503.41;5006840;28;20054;-77
2023/09/11 02:11:54;;;;;;;42.60;40.58;;;;;;;10.61;100.00;101509.94;5010972;28;20487;-77
2023/09/11 02:14:29;;;;;;;44.97;43.08;;;;;;;10.70;100.00;101500.84;4994379;28;20129;-77
2023/09/11 02:17:09;;;;;;;49.08;46.88;;;;;;;10.50;100.00;101504.09;5007548;28;20054;-77
2023/09/11 02:19:44;;;;;;;46.70;44.50;;;;;;;10.33;100.00;101510.63;5004661;28;20050;-77
2023/09/11 02:22:11;;;;;;;48.28;46.08;;;;;;;10.70;100.00;101501.66;5010633;28;20057;-77
2023/09/11 02:24:38;;;;;;;43.83;41.72;;;;;;;10.74;100.00;101504.75;5002760;28;20042;-77
2023/09/11 02:27:06;;;;;;;39.22;37.33;;;;;;;10.62;100.00;101506.25;5010619;28;20041;-77
2023/09/11 02:29:34;;;;;;;40.88;38.97;;;;;;;10.40;100.00;101511.53;5008768;28;20053;-77
2023/09/11 02:32:03;;;;;;;48.35;46.22;;;;;;;9.37;100.00;101512.22;5000602;28;20060;-77
2023/09/11 02:34:33;;;;;;;50.55;48.45;;;;;;;10.28;100.00;101507.69;5001096;28;20052;-75
2023/09/11 02:37:00;;;;;;;47.47;45.28;;;;;;;9.44;100.00;101515.84;5006644;28;20046;-75
2023/09/11 02:39:27;;;;;;;42.70;40.55;;;;;;;10.29;100.00;101510.19;4999602;28;20052;-75
2023/09/11 02:41:54;;;;;;;40.58;38.67;;;;;;;10.38;100.00;101518.88;5008144;28;20050;-75
2023/09/11 02:44:21;;;;;;;40.78;38.88;;;;;;;9.85;100.00;101513.59;5006228;28;20045;-75
2023/09/11 02:46:47;;;;;;;50.70;48.42;;;;;;;10.29;100.00;101507.53;5005995;28;20435;-76
2023/09/11 02:49:14;;;;;;;40.28;38.17;;;;;;;9.97;100.00;101511.34;5010233;28;20137;-75
2023/09/11 02:51:42;;;;;;;49.22;47.03;;;;;;;9.99;100.00;101511.16;5005942;28;20049;-75
2023/09/11 02:54:09;;;;;;;41.90;39.80;;;;;;;9.17;100.00;101503.97;5013950;28;20046;-75
2023/09/11 02:56:38;;;;;;;31.25;29.65;;;;;;;10.00;100.00;101508.31;5005434;28;20046;-76
2023/09/11 02:59:08;;;;;;;36.50;34.70;;;;;;;9.69;100.00;101510.31;5008337;28;20054;-76
2023/09/11 03:01:39;;;;;;;37.97;36.03;;;;;;;9.73;100.00;101509.75;5003059;28;20125;-76
2023/09/11 03:04:12;;;;;;;46.65;44.35;;;;;;;9.24;100.00;101504.88;5006988;28;20526;-76
2023/09/11 03:06:39;;;;;;;32.58;30.90;;;;;;;9.94;100.00;101501.09;5013779;28;20045;-77
2023/09/11 03:09:08;;;;;;;34.00;32.30;;;;;;;9.78;100.00;101504.75;5003975;28;20104;-77
2023/09/11 03:11:38;;;;;;;29.20;27.70;;;;;;;8.78;100.00;101509.34;5012700;28;20064;-76
2023/09/11 03:14:11;;;;;;;30.17;28.67;;;;;;;9.50;100.00;101516.94;5013823;28;20045;-77
2023/09/11 03:16:40;;;;;;;25.45;24.15;;;;;;;10.06;100.00;101515.53;5004981;28;20108;-76
2023/09/11 03:19:07;;;;;;;30.52;29.13;;;;;;;9.99;100.00;101511.97;5012261;28;20061;-75
2023/09/11 03:21:38;;;;;;;35.72;34.03;;;;;;;9.88;100.00;101511.59;5003836;28;20050;-75
2023/09/11 03:24:12;;;;;;;44.57;42.47;;;;;;;9.96;100.00;101517.66;5008529;28;20081;-75
2023/09/11 03:26:40;;;;;;;41.28;39.38;;;;;;;9.97;100.00;101510.50;5007717;28;20134;-76
2023/09/11 03:29:10;;;;;;;33.30;31.70;;;;;;;9.30;100.00;101519.25;5000308;28;20051;-75
2023/09/11 03:31:37;;;;;;;30.02;28.52;;;;;;;9.85;100.00;101515.44;5004608;28;20050;-75
2023/09/11 03:34:07;;;;;;;32.80;31.20;;;;;;;9.78;100.00;101514.53;5007353;28;20060;-77
2023/09/11 03:36:34;;;;;;;26.50;25.17;;;;;;;9.24;100.00;101517.31;5007642;28;20081;-76
2023/09/11 03:39:02;;;;;;;24.48;23.38;;;;;;;10.01;100.00;101519.75;5013420;28;20053;-77
2023/09/11 03:41:34;;;;;;;25.63;24.13;;;;;;;9.85;100.00;101523.41;5009473;28;20492;-75
2023/09/11 03:44:01;;;;;;;23.42;22.23;;;;;;;10.05;100.00;101523.72;5008970;28;20122;-77
2023/09/11 03:46:42;;;;;;;23.73;22.52;;;;;;;9.56;100.00;101519.72;5003216;28;20525;-75
2023/09/11 03:49:11;;;;;;;21.45;20.05;;;;;;;9.73;100.00;101524.84;5002816;28;20092;-76
2023/09/11 03:51:38;;;;;;;20.58;19.40;;;;;;;9.78;100.00;101531.28;5011924;28;20050;-76
2023/09/11 03:54:08;;;;;;;20.30;19.20;;;;;;;9.76;100.00;101532.44;5011919;28;20089;-76
2023/09/11 03:56:36;;;;;;;26.45;25.05;;;;;;;10.17;100.00;101532.84;4999887;28;20058;-76
2023/09/11 03:59:05;;;;;;;25.17;23.67;;;;;;;9.90;100.00;101521.03;5000250;28;20054;-76
2023/09/11 04:01:35;;;;;;;24.10;22.60;;;;;;;9.94;100.00;101519.66;5002175;28;20387;-76
2023/09/11 04:04:02;;;;;;;23.75;22.27;;;;;;;10.12;100.00;101534.41;5008210;28;20042;-77
2023/09/11 04:06:29;;;;;;;25.52;23.92;;;;;;;10.01;100.00;101522.41;5000582;28;20141;-77
2023/09/11 04:08:56;;;;;;;23.80;22.38;;;;;;;9.99;100.00;101519.94;5004209;28;20442;-77
2023/09/11 04:11:23;;;;;;;26.00;24.50;;;;;;;10.48;100.00;101530.03;5008831;28;20053;-77
2023/09/11 04:13:51;;;;;;;27.50;25.90;;;;;;;10.56;100.00;101531.75;5011653;28;20127;-77
2023/09/11 04:16:21;;;;;;;27.42;25.92;;;;;;;10.34;100.00;101524.72;5010847;28;20038;-77
2023/09/11 04:18:48;;;;;;;25.42;24.02;;;;;;;10.63;100.00;101513.25;5004726;28;20479;-77
2023/09/11 04:21:16;;;;;;;25.75;24.25;;;;;;;10.80;100.00;101516.47;5006394;28;20053;-77
2023/09/11 04:23:45;;;;;;;22.25;20.85;;;;;;;10.68;100.00;101519.66;5007711;28;20446;-77
2023/09/11 04:26:11;;;;;;;20.17;18.88;;;;;;;10.86;100.00;101521.03;5009849;28;20073;-77
2023/09/11 04:28:38;;;;;;;22.27;20.75;;;;;;;11.20;100.00;101507.09;5009295;28;20064;-77
2023/09/11 04:31:09;;;;;;;21.20;19.80;;;;;;;11.30;100.00;101512.09;5003013;28;20054;-78
2023/09/11 04:33:35;;;;;;;25.52;23.55;;;;;;;11.53;100.00;101511.84;5004307;28;20052;-77
2023/09/11 04:36:02;;;;;;;22.67;21.25;;;;;;;11.67;100.00;101522.41;5008115;28;20503;-78
2023/09/11 04:38:29;;;;;;;28.42;25.30;;;;;;;11.90;100.00;101522.19;4997843;28;20500;-77
2023/09/11 04:40:57;;;;;;;27.17;25.08;;;;;;;12.59;100.00;101529.31;4999485;28;20055;-77
2023/09/11 04:43:24;;;;;;;27.80;25.30;;;;;;;12.03;100.00;101513.47;5006070;28;20467;-78
2023/09/11 04:45:51;;;;;;;23.50;22.00;;;;;;;12.06;100.00;101522.91;5005957;28;20412;-78
2023/09/11 04:48:19;;;;;;;22.35;20.85;;;;;;;12.10;100.00;101524.16;5008476;28;20049;-78
2023/09/11 04:50:46;;;;;;;24.02;22.52;;;;;;;11.98;100.00;101523.91;5009665;28;20443;-78
2023/09/11 04:53:13;;;;;;;24.98;23.05;;;;;;;12.31;100.00;101525.91;5003221;28;20046;-78
2023/09/11 04:55:40;;;;;;;24.80;23.00;;;;;;;12.36;100.00;101513.63;5000543;28;20504;-78
2023/09/11 04:58:10;;;;;;;26.00;24.05;;;;;;;12.64;100.00;101528.69;5004439;28;20057;-76
2023/09/11 05:00:36;;;;;;;25.02;23.33;;;;;;;12.74;100.00;101526.50;5006819;28;20092;-76
2023/09/11 05:03:04;;;;;;;26.23;24.20;;;;;;;12.61;100.00;101529.91;5003039;28;20057;-77
2023/09/11 05:05:38;;;;;;;29.30;27.30;;;;;;;12.75;100.00;101532.66;5004504;28;20745;-78
2023/09/11 05:08:06;;;;;;;30.52;28.00;;;;;;;12.99;100.00;101531.28;4993701;28;20050;-77
2023/09/11 05:10:34;;;;;;;27.33;25.52;;;;;;;12.95;100.00;101524.69;5006836;28;20061;-77
2023/09/11 05:13:05;;;;;;;27.20;24.42;;;;;;;13.07;100.00;101517.72;5006538;28;20132;-77
2023/09/11 05:15:33;;;;;;;28.33;26.42;;;;;;;12.87;100.00;101516.88;5002533;28;20044;-78
2023/09/11 05:18:00;;;;;;;25.08;23.48;;;;;;;13.07;100.00;101512.41;5007046;28;20050;-77
2023/09/11 05:20:30;;;;;;;23.15;21.65;;;;;;;13.14;100.00;101517.75;5004565;28;20508;-78
2023/09/11 05:22:59;;;;;;;23.80;22.20;;;;;;;13.12;100.00;101509.94;5009333;28;20402;-77
2023/09/11 05:25:26;;;;;;;24.35;22.65;;;;;;;13.47;100.00;101513.28;4991738;28;20062;-77
2023/09/11 05:27:53;;;;;;;24.95;23.05;;;;;;;13.57;100.00;101515.53;4994592;28;20054;-77
2023/09/11 05:30:19;;;;;;;22.65;20.98;;;;;;;13.50;100.00;101507.56;5001597;28;20050;-77
2023/09/11 05:32:51;;;;;;;23.67;22.08;;;;;;;13.49;100.00;101502.41;5008753;28;20057;-78
2023/09/11 05:35:19;;;;;;;23.98;22.27;;;;;;;13.69;100.00;101500.53;5000749;28;20496;-77
2023/09/11 05:37:45;;;;;;;22.77;21.27;;;;;;;13.78;100.00;101506.50;5002520;28;20048;-78
2023/09/11 05:40:14;;;;;;;21.67;20.27;;;;;;;13.97;100.00;101504.81;5007992;28;20053;-77
2023/09/11 05:42:40;;;;;;;23.30;21.80;;;;;;;14.06;100.00;101503.53;4999603;28;20051;-76
2023/09/11 05:45:08;;;;;;;24.05;22.35;;;;;;;14.29;100.00;101504.94;5005962;28;20050;-77
2023/09/11 05:47:36;;;;;;;23.48;21.77;;;;;;;14.21;100.00;101497.97;4999309;28;20148;-76
2023/09/11 05:50:04;;;;;;;22.52;20.92;;;;;;;14.56;100.00;101503.81;5002976;28;20049;-76
2023/09/11 05:52:31;;;;;;;21.67;20.02;;;;;;;14.73;100.00;101503.31;5006415;28;20064;-76
2023/09/11 05:54:58;;;;;;;21.63;20.13;;;;;;;14.88;100.00;101504.66;5002466;28;20054;-77
2023/09/11 05:57:26;;;;;;;22.58;21.08;;;;;;;14.93;100.00;101500.53;4998649;28;20050;-77
2023/09/11 05:59:53;;;;;;;23.92;22.33;;;;;;;15.17;100.00;101506.94;5005136;28;20176;-77
2023/09/11 06:02:21;;;;;;;23.48;22.05;;;;;;;15.40;100.00;101512.53;5001081;28;20046;-78
2023/09/11 06:04:48;;;;;;;22.65;21.15;;;;;;;15.35;100.00;101509.69;5003448;28;20053;-76
2023/09/11 06:07:16;;;;;;;25.25;23.60;;;;;;;15.79;100.00;101508.72;5008317;28;20052;-77
2023/09/11 06:09:43;;;;;;;25.08;23.45;;;;;;;15.93;100.00;101513.94;5005614;28;20048;-76
2023/09/11 06:12:10;;;;;;;24.58;22.88;;;;;;;16.16;100.00;101518.66;5003536;28;20496;-76
2023/09/11 06:14:38;;;;;;;25.33;23.60;;;;;;;16.76;100.00;101518.72;5004695;28;20045;-78
2023/09/11 06:17:05;;;;;;;24.83;23.23;;;;;;;17.00;100.00;101511.56;5003354;28;20054;-76
2023/09/11 06:19:39;;;;;;;27.95;26.15;;;;;;;16.71;100.00;101507.84;5008372;28;20054;-78
2023/09/11 06:22:06;;;;;;;25.08;23.38;;;;;;;17.39;100.00;101507.44;4997197;28;20046;-77
2023/09/11 06:24:33;;;;;;;25.52;23.90;;;;;;;17.56;100.00;101510.28;5004408;28;20068;-78
2023/09/11 06:27:05;;;;;;;25.73;24.02;;;;;;;17.57;100.00;101511.91;4998755;28;20050;-76
2023/09/11 06:29:32;;;;;;;28.98;27.08;;;;;;;18.30;100.00;101515.94;5003375;28;20530;-77
2023/09/11 06:32:01;;;;;;;27.35;25.65;;;;;;;18.60;100.00;101503.34;5005599;28;20052;-77
2023/09/11 06:34:29;;;;;;;26.85;25.05;;;;;;;18.37;100.00;101506.94;5007737;28;20515;-78
2023/09/11 06:36:56;;;;;;;26.20;24.40;;;;;;;18.59;100.00;101510.59;4996567;28;20049;-78
2023/09/11 06:39:23;;;;;;;26.52;24.73;;;;;;;18.97;100.00;101510.00;4994845;28;20050;-77
2023/09/11 06:41:50;;;;;;;27.23;25.40;;;;;;;19.12;100.00;101503.22;4999524;28;20544;-78
2023/09/11 06:44:17;;;;;;;25.58;23.85;;;;;;;19.17;100.00;101500.59;4992310;28;20054;-78
2023/09/11 06:46:44;;;;;;;24.90;23.25;;;;;;;19.32;100.00;101506.25;4999709;28;20049;-77
2023/09/11 06:49:12;;;;;;;24.25;22.65;;;;;;;19.56;100.00;101511.47;5003357;28;20050;-77
2023/09/11 06:51:39;;;;;;;23.95;22.35;;;;;;;19.65;100.00;101512.72;4993287;28;20508;-76
2023/09/11 06:54:09;;;;;;;24.20;22.50;;;;;;;19.60;100.00;101515.28;4993793;28;21246;-78
2023/09/11 06:56:36;;;;;;;24.00;22.30;;;;;;;19.80;100.00;101501.34;4996741;28;20046;-78
2023/09/11 06:59:05;;;;;;;25.70;24.00;;;;;;;19.64;100.00;101506.50;5000299;28;20049;-77
2023/09/11 07:01:39;;;;;;;24.98;23.27;;;;;;;20.19;100.00;101506.69;5000415;28;20046;-77
2023/09/11 07:04:07;;;;;;;24.35;22.65;;;;;;;20.25;100.00;101509.19;4997911;28;20050;-77
2023/09/11 07:06:35;;;;;;;24.05;22.35;;;;;;;20.38;100.00;101505.31;5002943;28;20100;-77
2023/09/11 07:09:04;;;;;;;23.77;22.08;;;;;;;20.36;100.00;101499.34;5005627;28;20120;-78
2023/09/11 07:11:30;;;;;;;25.13;23.23;;;;;;;20.72;100.00;101505.97;5005484;28;20050;-77
2023/09/11 07:13:58;;;;;;;26.20;24.17;;;;;;;21.14;100.00;101501.75;4998116;28;20046;-76
2023/09/11 07:16:34;;;;;;;26.52;24.73;;;;;;;21.44;100.00;101503.91;4994053;28;20061;-77
2023/09/11 07:19:01;;;;;;;27.02;25.02;;;;;;;21.21;100.00;101496.94;4993955;28;20050;-78
2023/09/11 07:21:29;;;;;;;26.35;24.55;;;;;;;21.01;100.00;101508.41;5002365;28;20046;-78
2023/09/11 07:23:57;;;;;;;26.10;24.40;;;;;;;21.31;100.00;101501.63;5000128;28;20049;-76
2023/09/11 07:26:24;;;;;;;27.20;25.27;;;;;;;21.75;100.00;101502.22;5000046;28;20096;-77
2023/09/11 07:28:54;;;;;;;27.73;25.58;;;;;;;22.34;100.00;101493.06;4997935;28;20089;-78
2023/09/11 07:31:21;;;;;;;27.17;25.38;;;;;;;22.16;100.00;101497.84;4999388;28;20048;-79
2023/09/11 07:33:48;;;;;;;26.98;24.98;;;;;;;22.09;100.00;101501.88;5006889;28;20054;-78
2023/09/11 07:36:17;;;;;;;26.13;24.33;;;;;;;22.25;100.00;101498.16;5001367;28;20051;-79
2023/09/11 07:38:45;;;;;;;25.70;24.00;;;;;;;22.40;100.00;101498.22;4999887;28;20045;-79
2023/09/11 07:41:15;;;;;;;25.50;23.80;;;;;;;22.45;100.00;101492.00;4997854;28;20050;-77
2023/09/11 07:43:44;;;;;;;25.70;24.00;;;;;;;22.67;100.00;101488.28;4999159;28;20055;-78
2023/09/11 07:46:10;;;;;;;24.50;22.90;;;;;;;22.64;100.00;101493.13;4998955;28;20100;-79
2023/09/11 07:48:37;;;;;;;24.23;22.58;;;;;;;23.29;100.00;101489.94;5004085;28;20060;-78
2023/09/11 07:51:06;;;;;;;27.00;25.10;;;;;;;23.13;100.00;101497.25;5001959;28;20046;-78
2023/09/11 07:53:33;;;;;;;24.55;22.65;;;;;;;23.05;100.00;101493.19;5010095;28;20683;-77
2023/09/11 07:56:11;;;;;;;25.63;24.02;;;;;;;23.80;100.00;101495.28;5004292;28;20050;-78
2023/09/11 07:58:40;;;;;;;25.13;23.52;;;;;;;24.00;100.00;101500.66;5010370;28;20152;-79
2023/09/11 08:01:07;;;;;;;26.10;24.40;;;;;;;24.06;100.00;101487.09;5005167;28;20057;-77
2023/09/11 08:03:35;;;;;;;26.48;24.58;;;;;;;23.76;100.00;101486.09;5008372;28;20057;-77
2023/09/11 08:06:04;;;;;;;26.17;24.20;;;;;;;23.69;100.00;101483.69;4995165;28;20134;-77
2023/09/11 08:08:30;;;;;;;25.40;23.50;;;;;;;23.92;100.00;101476.00;5008192;28;20129;-77
2023/09/11 08:10:57;;;;;;;27.13;25.13;;;;;;;23.80;100.00;101476.31;4995810;28;20050;-77
2023/09/11 08:13:31;;;;;;;27.02;24.92;;;;;;;23.56;100.00;101476.06;4997622;28;20412;-77
2023/09/11 08:15:59;;;;;;;26.23;24.33;;;;;;;23.97;100.00;101465.13;5005080;28;20046;-77
2023/09/11 08:18:26;;;;;;;26.38;24.38;;;;;;;24.56;100.00;101475.16;5002557;28;20502;-77
2023/09/11 08:20:53;;;;;;;28.00;25.90;;;;;;;24.63;100.00;101466.69;4997031;28;20605;-77
2023/09/11 08:23:21;;;;;;;27.20;25.23;;;;;;;24.88;100.00;101461.06;5004942;28;20050;-76
2023/09/11 08:25:57;;;;;;;25.83;23.83;;;;;;;24.67;90.98;101456.91;4999182;28;20057;-77
2023/09/11 08:28:24;;;;;;;25.77;23.73;;;;;;;24.18;92.83;101458.53;5004902;28;20054;-76
2023/09/11 08:30:51;;;;;;;24.50;22.80;;;;;;;23.92;96.46;101451.59;5005081;28;20144;-76
2023/09/11 08:33:20;;;;;;;25.92;24.23;;;;;;;24.91;93.37;101456.97;5000955;28;20058;-77
2023/09/11 08:35:48;;;;;;;26.30;24.60;;;;;;;25.36;82.54;101441.38;5006746;28;20050;-77
2023/09/11 08:38:15;;;;;;;25.45;23.65;;;;;;;25.49;80.14;101442.59;5002647;28;20049;-77
2023/09/11 08:40:43;;;;;;;27.25;25.45;;;;;;;25.04;80.50;101448.16;5000929;28;20050;-76
2023/09/11 08:43:10;;;;;;;26.25;24.55;;;;;;;25.79;62.13;101434.06;4995684;28;20444;-76
2023/09/11 08:45:40;;;;;;;25.92;24.17;;;;;;;25.08;69.84;101437.53;5009896;28;20057;-76
2023/09/11 08:48:14;;;;;;;26.25;24.35;;;;;;;26.10;70.93;101433.72;4996112;28;20078;-77
2023/09/11 08:50:44;;;;;;;24.88;23.17;;;;;;;26.13;65.93;101427.69;5004752;28;20042;-77
2023/09/11 08:53:17;;;;;;;24.23;22.52;;;;;;;26.66;59.73;101437.56;4997888;28;20050;-77
2023/09/11 08:55:46;;;;;;;24.52;22.83;;;;;;;26.89;52.04;101427.63;5006955;28;20041;-76
2023/09/11 08:58:19;;;;;;;21.70;20.05;;;;;;;26.82;49.76;101428.03;4998834;28;20046;-77
2023/09/11 09:00:46;;;;;;;23.98;22.17;;;;;;;27.01;49.38;101425.25;5001909;28;20042;-76
2023/09/11 09:03:13;;;;;;;22.75;20.95;;;;;;;26.77;52.94;101422.66;4992393;28;20059;-77
2023/09/11 09:05:41;;;;;;;24.10;22.20;;;;;;;27.01;50.44;101418.97;5003430;28;20464;-77
2023/09/11 09:08:14;;;;;;;23.60;21.80;;;;;;;27.00;50.70;101420.09;4997615;28;20069;-77
2023/09/11 09:10:43;;;;;;;24.27;22.27;;;;;;;26.69;51.33;101415.19;5001119;28;20053;-77
2023/09/11 09:13:10;;;;;;;26.05;24.05;;;;;;;26.67;50.36;101417.38;4998974;28;20050;-76
2023/09/11 09:15:40;;;;;;;24.58;22.88;;;;;;;26.78;50.57;101418.84;5008391;28;20618;-76
2023/09/11 09:18:08;;;;;;;26.25;24.35;;;;;;;27.30;49.87;101407.84;5003966;28;20049;-76
2023/09/11 09:20:39;;;;;;;25.48;23.58;;;;;;;27.10;48.63;101409.81;5004438;28;20065;-77
2023/09/11 09:23:06;;;;;;;26.23;24.42;;;;;;;27.46;49.13;101400.19;4997370;28;20054;-77
2023/09/11 09:25:37;;;;;;;24.42;22.63;;;;;;;28.07;42.59;101401.63;5002956;28;20061;-77
2023/09/11 09:28:05;;;;;;;24.65;22.88;;;;;;;28.07;47.83;101396.16;4992964;28;20054;-76
2023/09/11 09:30:34;;;;;;;22.20;20.50;;;;;;;28.69;41.38;101392.81;5002167;28;20050;-77
2023/09/11 09:33:03;;;;;;;23.73;22.02;;;;;;;28.70;40.51;101388.97;4992010;28;20047;-78
2023/09/11 09:35:32;;;;;;;23.70;22.10;;;;;;;28.59;39.57;101384.88;4998602;28;20439;-79
2023/09/11 09:38:05;;;;;;;23.00;21.40;;;;;;;28.44;41.04;101378.69;5000469;28;20504;-78
2023/09/11 09:40:37;;;;;;;24.00;22.33;;;;;;;28.10;39.16;101387.38;5003912;28;20050;-78
2023/09/11 09:43:07;;;;;;;24.80;23.10;;;;;;;28.17;39.80;101378.75;5001187;28;20061;-78
2023/09/11 09:45:37;;;;;;;23.85;22.25;;;;;;;28.85;38.33;101377.63;5000499;28;20053;-79
2023/09/11 09:48:09;;;;;;;23.20;21.60;;;;;;;28.49;36.91;101361.34;5002291;28;20041;-79
2023/09/11 09:50:58;;;;;;;22.35;20.85;;;;;;;29.47;41.91;101357.63;5001149;28;20500;-77
2023/09/11 09:53:28;;;;;;;22.75;21.15;;;;;;;29.83;38.79;101360.13;4998598;28;20065;-77
2023/09/11 09:55:59;;;;;;;25.77;23.77;;;;;;;28.94;36.67;101369.47;5003337;28;20050;-77
2023/09/11 09:58:28;;;;;;;24.00;22.10;;;;;;;28.96;37.33;101359.84;5001875;28;20042;-77
2023/09/11 10:01:04;;;;;;;24.58;22.73;;;;;;;29.09;36.46;101369.09;4998875;28;20556;-77
2023/09/11 10:03:42;;;;;;;24.08;22.27;;;;;;;29.01;37.71;101367.09;4997940;28;20400;-77
2023/09/11 10:06:10;;;;;;;23.00;21.20;;;;;;;28.38;37.49;101363.47;4995482;28;20500;-77
2023/09/11 10:08:38;;;;;;;22.85;21.05;;;;;;;28.49;43.10;101351.22;5000871;28;20042;-76
2023/09/11 10:11:06;;;;;;;26.42;24.83;;;;;;;29.30;36.03;101343.91;4995516;28;20054;-77
2023/09/11 10:13:36;;;;;;;25.58;23.90;;;;;;;29.73;35.46;101335.00;4999233;28;20112;-77
2023/09/11 10:16:04;;;;;;;20.98;19.48;;;;;;;29.98;35.52;101339.69;5002293;28;20129;-77
2023/09/11 10:18:41;;;;;;;23.77;22.17;;;;;;;29.99;35.64;101344.06;5007390;28;20038;-77
2023/09/11 10:21:08;;;;;;;22.55;20.95;;;;;;;30.12;36.08;101334.06;4998228;28;20050;-77
2023/09/11 10:23:38;;;;;;;23.23;21.33;;;;;;;30.61;35.80;101331.91;4996020;28;20054;-77
2023/09/11 10:26:15;;;;;;;22.92;21.15;;;;;;;30.20;35.34;101329.69;4995483;28;20056;-77
2023/09/11 10:28:46;;;;;;;24.92;23.23;;;;;;;30.73;35.53;101336.69;5003210;28;20046;-77
2023/09/11 10:31:21;;;;;;;26.15;24.35;;;;;;;30.93;35.10;101327.78;5002342;28;20047;-77
2023/09/11 10:33:54;;;;;;;23.60;21.90;;;;;;;30.55;35.49;101324.97;4998984;28;20077;-77
2023/09/11 10:36:23;;;;;;;27.48;25.58;;;;;;;29.67;36.85;101326.16;5002597;28;20045;-77
2023/09/11 10:38:53;;;;;;;28.77;26.50;;;;;;;31.03;35.03;101323.88;5001585;28;20042;-77
2023/09/11 10:41:22;;;;;;;26.30;24.70;;;;;;;31.13;36.08;101314.44;5006235;28;20663;-77
2023/09/11 10:43:49;;;;;;;24.33;22.48;;;;;;;30.19;36.10;101325.34;5002748;28;20050;-77
2023/09/11 10:46:31;;;;;;;22.77;21.27;;;;;;;29.93;36.46;101326.16;5001768;28;20049;-78
2023/09/11 10:48:59;;;;;;;23.53;21.83;;;;;;;30.30;38.65;101318.44;5004282;28;20068;-77
2023/09/11 10:51:28;;;;;;;23.60;22.00;;;;;;;30.57;37.60;101309.81;5000427;28;20046;-78
2023/09/11 10:53:55;;;;;;;22.35;20.75;;;;;;;31.24;37.13;101313.75;4998612;28;20072;-77
2023/09/11 10:56:23;;;;;;;25.85;24.05;;;;;;;32.37;36.50;101317.56;5002995;28;20050;-77
2023/09/11 10:58:52;;;;;;;24.55;22.75;;;;;;;32.82;34.26;101309.31;5000274;28;20060;-78
2023/09/11 11:01:19;;;;;;;23.92;22.33;;;;;;;31.09;36.92;101305.28;4995829;28;20637;-78
2023/09/11 11:03:46;;;;;;;22.40;20.90;;;;;;;30.67;36.79;101308.66;4995548;28;20062;-77
2023/09/11 11:06:18;;;;;;;22.90;21.20;;;;;;;30.90;35.70;101308.44;5006131;28;20049;-77
2023/09/11 11:08:47;;;;;;;22.85;21.25;;;;;;;31.63;35.08;101294.47;4993087;28;20038;-78
2023/09/11 11:11:25;;;;;;;25.88;24.23;;;;;;;30.30;36.62;101283.63;4997580;28;20049;-77
2023/09/11 11:14:21;;;;;;;24.48;22.77;;;;;;;31.02;36.70;101276.44;4997087;28;20054;-77